Spruce Pine, NC

12:21 AM EST on February 28, 2015 (GMT -0500)
NonFedAWOS AVERY COUNTY NC US SUPERAWOS | Change Station
CLOSE
Current Station
Personal Weather Station
Location: Linville Falls, NC
Elevation: 2750 ft
Nearby Weather Stations
Active Advisory: Special Statement

Elev 2750 ft 35.94 °N, 82.00 °W | Updated 46 minutes ago

Clear
Clear
19 °F
Feels Like 19 °F
N
0
Wind Variable Wind from North
Gusts 0.0 mph

Today
High -- | Low -- °F
--% Chance of Precip.
Yesterday
High -- | Low -- °F
Precip. -- in
6:59 AM 6:22 PM
Waxing Gibbous, 74% visible
Pressure 30.56 in
Visibility 10.0 miles
Clouds Clear
Windchill 19 °F
Dew Point 12 °F
Humidity 73%
Rainfall -999.00 in
Snow Depth Not available.
UV 0 out of 12
Pollen 4.80 out of 12
Air Quality Not available.
Flu Activity Not available.
METAR KMRN 280515Z AUTO 00000KT 10SM CLR M03/M06 A3056 RMK AO2 T10351056

More Conditions Fewer Conditions

Pressure 30.56 in
Visibility 10.0 miles
Clouds Clear
Windchill 19 °F
Dew Point 12 °F
Humidity 73%
Rainfall -999.00 in
Snow Depth Not available.
UV 0 out of 12
Pollen 4.80 out of 12
Air Quality Not available.
Flu Activity Not available.
METAR KMRN 280515Z AUTO 00000KT 10SM CLR M03/M06 A3056 RMK AO2 T10351056

More Conditions Fewer Conditions

10-Day Weather Forecast

Almanac

Astronomy

Feb. 28, 2015 Rise Set
Actual Time
Civil Twilight
Nautical Twilight
Astronomical Twilight
Moon
Length of Visible Light
Length of Day
Tomorrow will be .
, % of the Moon is Illuminated

Today's Extremes

State Highs State Lows

Community

WunderPhotos

Upload Photos

1,800,973 photos uploaded!

WunderBlogs® & News

Nearby

Air Quality

  Air Quality AQ Index Pollutant
Not available.

Snow Depth

Station Depth Elevation

Earthquake Activity

City Distance Mag. Time & Date
Minimum magnitude displayed is 2.5.

Coastal Water Temperatures

Place Temperature

Nearby Weather Stations

Special Statement
Statement as of 10:41 PM EST on February 27, 2015

... Areas of black ice possible through Saturday morning...

Temperatures will be below freezing across the North Carolina
mountains and northwest Piedmont through Saturday morning. This
will allow patches of black ice to form on Road surfaces as
melted snow and slush refreeze. Drivers on area roadways should be
prepared to encounter very slippery spots. Some areas on roads
that appear clear may be covered by a thin layer of ice.

Wimberley